sensor_id;sensor_type;location;lat;lon;timestamp;P1;durP1;ratioP1;P2;durP2;ratioP2
28627;SDS011;15815;46.760;19.604;2023-12-28T00:00:23;35.72;;;14.75;;
28627;SDS011;15815;46.760;19.604;2023-12-28T00:02:49;38.17;;;15.95;;
28627;SDS011;15815;46.760;19.604;2023-12-28T00:05:15;32.30;;;15.68;;
28627;SDS011;15815;46.760;19.604;2023-12-28T00:07:41;27.85;;;14.75;;
28627;SDS011;15815;46.760;19.604;2023-12-28T00:10:06;27.77;;;13.93;;
28627;SDS011;15815;46.760;19.604;2023-12-28T00:12:34;31.10;;;13.55;;
28627;SDS011;15815;46.760;19.604;2023-12-28T00:15:01;30.80;;;14.55;;
28627;SDS011;15815;46.760;19.604;2023-12-28T00:17:29;34.35;;;14.73;;
28627;SDS011;15815;46.760;19.604;2023-12-28T00:19:55;38.35;;;15.35;;
28627;SDS011;15815;46.760;19.604;2023-12-28T00:22:21;27.90;;;13.02;;
28627;SDS011;15815;46.760;19.604;2023-12-28T00:24:46;30.02;;;14.50;;
28627;SDS011;15815;46.760;19.604;2023-12-28T00:27:12;30.25;;;13.93;;
28627;SDS011;15815;46.760;19.604;2023-12-28T00:29:40;29.27;;;13.77;;
28627;SDS011;15815;46.760;19.604;2023-12-28T00:32:06;29.80;;;13.90;;
28627;SDS011;15815;46.760;19.604;2023-12-28T00:37:17;34.33;;;13.70;;
28627;SDS011;15815;46.760;19.604;2023-12-28T00:39:45;33.63;;;14.60;;
28627;SDS011;15815;46.760;19.604;2023-12-28T00:42:11;30.00;;;14.25;;
28627;SDS011;15815;46.760;19.604;2023-12-28T00:44:36;32.22;;;14.57;;
28627;SDS011;15815;46.760;19.604;2023-12-28T00:47:02;23.05;;;12.15;;
28627;SDS011;15815;46.760;19.604;2023-12-28T00:49:32;29.77;;;12.82;;
28627;SDS011;15815;46.760;19.604;2023-12-28T00:51:58;28.65;;;12.73;;
28627;SDS011;15815;46.760;19.604;2023-12-28T00:54:24;23.88;;;10.63;;
28627;SDS011;15815;46.760;19.604;2023-12-28T00:56:54;25.95;;;11.30;;
28627;SDS011;15815;46.760;19.604;2023-12-28T00:59:20;22.23;;;11.00;;
28627;SDS011;15815;46.760;19.604;2023-12-28T01:01:45;23.60;;;11.25;;
28627;SDS011;15815;46.760;19.604;2023-12-28T01:04:12;23.50;;;10.55;;
28627;SDS011;15815;46.760;19.604;2023-12-28T01:06:38;23.00;;;11.52;;
28627;SDS011;15815;46.760;19.604;2023-12-28T01:09:13;26.85;;;11.07;;
28627;SDS011;15815;46.760;19.604;2023-12-28T01:11:38;20.05;;;10.48;;
28627;SDS011;15815;46.760;19.604;2023-12-28T01:14:05;27.63;;;11.60;;
28627;SDS011;15815;46.760;19.604;2023-12-28T01:16:34;21.95;;;10.90;;
28627;SDS011;15815;46.760;19.604;2023-12-28T01:18:59;23.95;;;10.95;;
28627;SDS011;15815;46.760;19.604;2023-12-28T01:21:25;24.42;;;10.25;;
28627;SDS011;15815;46.760;19.604;2023-12-28T01:26:44;25.55;;;10.15;;
28627;SDS011;15815;46.760;19.604;2023-12-28T01:29:13;21.48;;;10.38;;
28627;SDS011;15815;46.760;19.604;2023-12-28T01:31:56;23.88;;;11.05;;
28627;SDS011;15815;46.760;19.604;2023-12-28T01:34:21;22.80;;;10.45;;
28627;SDS011;15815;46.760;19.604;2023-12-28T01:36:47;23.55;;;11.38;;
28627;SDS011;15815;46.760;19.604;2023-12-28T01:39:12;20.67;;;10.13;;
28627;SDS011;15815;46.760;19.604;2023-12-28T01:41:38;22.15;;;11.07;;
28627;SDS011;15815;46.760;19.604;2023-12-28T01:44:04;20.95;;;10.38;;
28627;SDS011;15815;46.760;19.604;2023-12-28T01:49:01;17.27;;;8.98;;
28627;SDS011;15815;46.760;19.604;2023-12-28T01:51:29;28.50;;;11.52;;
28627;SDS011;15815;46.760;19.604;2023-12-28T01:54:02;28.88;;;11.60;;
28627;SDS011;15815;46.760;19.604;2023-12-28T01:56:29;26.52;;;12.23;;
28627;SDS011;15815;46.760;19.604;2023-12-28T01:59:00;27.92;;;12.35;;
28627;SDS011;15815;46.760;19.604;2023-12-28T02:08:34;23.63;;;12.00;;
28627;SDS011;15815;46.760;19.604;2023-12-28T02:14:05;46.50;;;20.10;;
28627;SDS011;15815;46.760;19.604;2023-12-28T02:16:41;19.27;;;10.75;;
28627;SDS011;15815;46.760;19.604;2023-12-28T02:22:14;24.50;;;11.40;;
28627;SDS011;15815;46.760;19.604;2023-12-28T02:27:43;23.02;;;11.63;;
28627;SDS011;15815;46.760;19.604;2023-12-28T02:30:13;24.30;;;12.15;;
28627;SDS011;15815;46.760;19.604;2023-12-28T02:36:22;25.73;;;10.65;;
28627;SDS011;15815;46.760;19.604;2023-12-28T02:38:35;25.90;;;12.23;;
28627;SDS011;15815;46.760;19.604;2023-12-28T02:41:07;28.25;;;11.57;;
28627;SDS011;15815;46.760;19.604;2023-12-28T02:43:36;26.08;;;11.90;;
28627;SDS011;15815;46.760;19.604;2023-12-28T02:46:05;28.45;;;13.05;;
28627;SDS011;15815;46.760;19.604;2023-12-28T02:48:32;30.75;;;12.10;;
28627;SDS011;15815;46.760;19.604;2023-12-28T02:50:57;28.38;;;14.02;;
28627;SDS011;15815;46.760;19.604;2023-12-28T02:53:23;31.80;;;13.77;;
28627;SDS011;15815;46.760;19.604;2023-12-28T02:55:48;32.75;;;13.90;;
28627;SDS011;15815;46.760;19.604;2023-12-28T02:58:16;26.25;;;13.25;;
28627;SDS011;15815;46.760;19.604;2023-12-28T03:00:42;31.38;;;13.00;;
28627;SDS011;15815;46.760;19.604;2023-12-28T03:03:17;26.30;;;12.48;;
28627;SDS011;15815;46.760;19.604;2023-12-28T03:05:43;27.52;;;14.32;;
28627;SDS011;15815;46.760;19.604;2023-12-28T03:08:10;28.40;;;14.02;;
28627;SDS011;15815;46.760;19.604;2023-12-28T03:10:39;31.85;;;14.20;;
28627;SDS011;15815;46.760;19.604;2023-12-28T03:13:04;33.25;;;15.20;;
28627;SDS011;15815;46.760;19.604;2023-12-28T03:15:30;28.67;;;13.95;;
28627;SDS011;15815;46.760;19.604;2023-12-28T03:17:55;29.38;;;15.25;;
28627;SDS011;15815;46.760;19.604;2023-12-28T03:20:22;30.15;;;14.05;;
28627;SDS011;15815;46.760;19.604;2023-12-28T03:22:48;34.63;;;15.60;;
28627;SDS011;15815;46.760;19.604;2023-12-28T03:25:15;28.38;;;14.98;;
28627;SDS011;15815;46.760;19.604;2023-12-28T03:27:41;33.42;;;15.93;;
28627;SDS011;15815;46.760;19.604;2023-12-28T03:30:06;36.08;;;14.75;;
28627;SDS011;15815;46.760;19.604;2023-12-28T03:32:44;33.22;;;15.30;;
28627;SDS011;15815;46.760;19.604;2023-12-28T03:35:10;36.28;;;15.80;;
28627;SDS011;15815;46.760;19.604;2023-12-28T03:37:35;29.70;;;14.55;;
28627;SDS011;15815;46.760;19.604;2023-12-28T03:40:01;35.70;;;15.68;;
28627;SDS011;15815;46.760;19.604;2023-12-28T03:42:27;33.75;;;14.57;;
28627;SDS011;15815;46.760;19.604;2023-12-28T03:44:53;37.33;;;15.68;;
28627;SDS011;15815;46.760;19.604;2023-12-28T03:47:19;33.90;;;15.52;;
28627;SDS011;15815;46.760;19.604;2023-12-28T03:49:46;34.42;;;15.00;;
28627;SDS011;15815;46.760;19.604;2023-12-28T03:52:12;35.30;;;15.05;;
28627;SDS011;15815;46.760;19.604;2023-12-28T03:54:37;31.05;;;15.30;;
28627;SDS011;15815;46.760;19.604;2023-12-28T03:57:07;33.90;;;15.75;;
28627;SDS011;15815;46.760;19.604;2023-12-28T03:59:32;36.42;;;16.27;;
28627;SDS011;15815;46.760;19.604;2023-12-28T04:01:58;32.42;;;14.88;;
28627;SDS011;15815;46.760;19.604;2023-12-28T04:04:32;36.03;;;16.42;;
28627;SDS011;15815;46.760;19.604;2023-12-28T04:06:57;31.42;;;16.55;;
28627;SDS011;15815;46.760;19.604;2023-12-28T04:11:59;37.35;;;16.98;;
28627;SDS011;15815;46.760;19.604;2023-12-28T04:14:26;35.33;;;15.60;;
28627;SDS011;15815;46.760;19.604;2023-12-28T04:16:55;38.40;;;15.75;;
28627;SDS011;15815;46.760;19.604;2023-12-28T04:19:21;37.97;;;16.33;;
28627;SDS011;15815;46.760;19.604;2023-12-28T04:21:46;33.33;;;16.30;;
28627;SDS011;15815;46.760;19.604;2023-12-28T04:24:16;32.85;;;15.32;;
28627;SDS011;15815;46.760;19.604;2023-12-28T04:26:41;38.03;;;17.83;;
28627;SDS011;15815;46.760;19.604;2023-12-28T04:29:07;37.10;;;17.15;;
28627;SDS011;15815;46.760;19.604;2023-12-28T04:31:43;35.78;;;17.23;;
28627;SDS011;15815;46.760;19.604;2023-12-28T04:34:09;44.50;;;18.70;;
28627;SDS011;15815;46.760;19.604;2023-12-28T04:36:43;34.60;;;17.25;;
28627;SDS011;15815;46.760;19.604;2023-12-28T04:39:10;41.90;;;18.38;;
28627;SDS011;15815;46.760;19.604;2023-12-28T04:41:37;52.70;;;20.73;;
28627;SDS011;15815;46.760;19.604;2023-12-28T04:44:03;39.85;;;18.20;;
28627;SDS011;15815;46.760;19.604;2023-12-28T04:46:39;31.73;;;16.15;;
28627;SDS011;15815;46.760;19.604;2023-12-28T04:49:05;35.10;;;16.95;;
28627;SDS011;15815;46.760;19.604;2023-12-28T04:51:30;28.92;;;15.43;;
28627;SDS011;15815;46.760;19.604;2023-12-28T04:53:56;28.85;;;16.00;;
28627;SDS011;15815;46.760;19.604;2023-12-28T04:56:22;34.33;;;15.43;;
28627;SDS011;15815;46.760;19.604;2023-12-28T04:58:47;32.72;;;15.80;;
28627;SDS011;15815;46.760;19.604;2023-12-28T05:01:12;34.40;;;15.60;;
28627;SDS011;15815;46.760;19.604;2023-12-28T05:03:39;33.88;;;15.68;;
28627;SDS011;15815;46.760;19.604;2023-12-28T05:06:04;29.05;;;14.60;;
28627;SDS011;15815;46.760;19.604;2023-12-28T05:08:30;31.38;;;16.77;;
28627;SDS011;15815;46.760;19.604;2023-12-28T05:10:56;31.05;;;15.27;;
28627;SDS011;15815;46.760;19.604;2023-12-28T05:15:52;35.33;;;16.27;;
28627;SDS011;15815;46.760;19.604;2023-12-28T05:18:19;35.05;;;16.33;;
28627;SDS011;15815;46.760;19.604;2023-12-28T05:23:37;32.17;;;16.38;;
28627;SDS011;15815;46.760;19.604;2023-12-28T05:26:02;34.25;;;15.98;;
28627;SDS011;15815;46.760;19.604;2023-12-28T05:28:30;33.13;;;16.10;;
28627;SDS011;15815;46.760;19.604;2023-12-28T05:30:56;32.00;;;16.08;;
28627;SDS011;15815;46.760;19.604;2023-12-28T05:33:22;35.53;;;16.77;;
28627;SDS011;15815;46.760;19.604;2023-12-28T05:35:50;30.25;;;15.63;;
28627;SDS011;15815;46.760;19.604;2023-12-28T05:38:15;38.60;;;16.48;;
28627;SDS011;15815;46.760;19.604;2023-12-28T05:43:47;40.40;;;18.33;;
28627;SDS011;15815;46.760;19.604;2023-12-28T05:46:13;48.65;;;19.67;;
28627;SDS011;15815;46.760;19.604;2023-12-28T05:48:38;46.22;;;19.33;;
28627;SDS011;15815;46.760;19.604;2023-12-28T05:51:10;41.80;;;20.55;;
28627;SDS011;15815;46.760;19.604;2023-12-28T05:53:36;39.72;;;19.48;;
28627;SDS011;15815;46.760;19.604;2023-12-28T05:56:02;41.42;;;19.38;;
28627;SDS011;15815;46.760;19.604;2023-12-28T05:58:34;38.53;;;18.52;;
28627;SDS011;15815;46.760;19.604;2023-12-28T06:01:00;38.38;;;18.00;;
28627;SDS011;15815;46.760;19.604;2023-12-28T06:03:42;40.92;;;19.75;;
28627;SDS011;15815;46.760;19.604;2023-12-28T06:11:39;41.88;;;17.95;;
28627;SDS011;15815;46.760;19.604;2023-12-28T06:14:08;37.40;;;19.45;;
28627;SDS011;15815;46.760;19.604;2023-12-28T06:16:38;38.22;;;19.25;;
28627;SDS011;15815;46.760;19.604;2023-12-28T06:22:21;36.72;;;18.15;;
28627;SDS011;15815;46.760;19.604;2023-12-28T06:24:47;44.58;;;19.95;;
28627;SDS011;15815;46.760;19.604;2023-12-28T06:27:13;48.58;;;21.33;;
28627;SDS011;15815;46.760;19.604;2023-12-28T06:29:51;41.75;;;20.42;;
28627;SDS011;15815;46.760;19.604;2023-12-28T06:32:37;44.05;;;20.70;;
28627;SDS011;15815;46.760;19.604;2023-12-28T06:35:20;46.47;;;19.98;;
28627;SDS011;15815;46.760;19.604;2023-12-28T06:41:37;51.33;;;21.63;;
28627;SDS011;15815;46.760;19.604;2023-12-28T06:44:02;55.80;;;25.00;;
28627;SDS011;15815;46.760;19.604;2023-12-28T06:46:28;65.03;;;29.10;;
28627;SDS011;15815;46.760;19.604;2023-12-28T06:48:54;78.22;;;34.38;;
28627;SDS011;15815;46.760;19.604;2023-12-28T06:51:23;70.57;;;29.73;;
28627;SDS011;15815;46.760;19.604;2023-12-28T06:53:57;59.28;;;28.80;;
28627;SDS011;15815;46.760;19.604;2023-12-28T06:56:23;53.80;;;27.20;;
28627;SDS011;15815;46.760;19.604;2023-12-28T06:58:49;53.63;;;26.13;;
28627;SDS011;15815;46.760;19.604;2023-12-28T07:01:15;112.85;;;40.08;;
28627;SDS011;15815;46.760;19.604;2023-12-28T07:03:41;122.75;;;45.25;;
28627;SDS011;15815;46.760;19.604;2023-12-28T07:06:06;81.03;;;33.65;;
28627;SDS011;15815;46.760;19.604;2023-12-28T07:08:32;84.07;;;36.30;;
28627;SDS011;15815;46.760;19.604;2023-12-28T07:10:57;89.20;;;38.13;;
28627;SDS011;15815;46.760;19.604;2023-12-28T07:13:23;91.40;;;38.95;;
28627;SDS011;15815;46.760;19.604;2023-12-28T07:15:48;95.60;;;40.53;;
28627;SDS011;15815;46.760;19.604;2023-12-28T07:18:17;76.72;;;32.90;;
28627;SDS011;15815;46.760;19.604;2023-12-28T07:20:43;46.92;;;24.83;;
28627;SDS011;15815;46.760;19.604;2023-12-28T07:23:08;54.30;;;24.55;;
28627;SDS011;15815;46.760;19.604;2023-12-28T07:28:20;46.63;;;24.35;;
28627;SDS011;15815;46.760;19.604;2023-12-28T07:31:00;57.95;;;27.33;;
28627;SDS011;15815;46.760;19.604;2023-12-28T07:33:28;64.68;;;29.63;;
28627;SDS011;15815;46.760;19.604;2023-12-28T07:35:57;40.83;;;20.45;;
28627;SDS011;15815;46.760;19.604;2023-12-28T07:38:23;44.70;;;22.67;;
28627;SDS011;15815;46.760;19.604;2023-12-28T07:40:49;40.92;;;21.02;;
28627;SDS011;15815;46.760;19.604;2023-12-28T07:45:51;49.50;;;23.70;;
28627;SDS011;15815;46.760;19.604;2023-12-28T07:51:16;47.08;;;23.35;;
28627;SDS011;15815;46.760;19.604;2023-12-28T07:53:42;53.28;;;23.85;;
28627;SDS011;15815;46.760;19.604;2023-12-28T07:58:48;58.63;;;23.90;;
28627;SDS011;15815;46.760;19.604;2023-12-28T08:01:17;52.15;;;23.08;;
28627;SDS011;15815;46.760;19.604;2023-12-28T08:03:43;54.00;;;22.70;;
28627;SDS011;15815;46.760;19.604;2023-12-28T08:06:08;37.03;;;19.05;;
28627;SDS011;15815;46.760;19.604;2023-12-28T08:08:37;32.78;;;16.83;;
28627;SDS011;15815;46.760;19.604;2023-12-28T08:11:03;30.40;;;15.82;;
28627;SDS011;15815;46.760;19.604;2023-12-28T08:13:47;28.58;;;15.30;;
28627;SDS011;15815;46.760;19.604;2023-12-28T08:16:12;27.90;;;15.52;;
28627;SDS011;15815;46.760;19.604;2023-12-28T08:18:37;26.90;;;14.40;;
28627;SDS011;15815;46.760;19.604;2023-12-28T08:21:04;30.58;;;16.05;;
28627;SDS011;15815;46.760;19.604;2023-12-28T08:23:30;23.35;;;14.82;;
28627;SDS011;15815;46.760;19.604;2023-12-28T08:25:55;28.55;;;16.08;;
28627;SDS011;15815;46.760;19.604;2023-12-28T08:28:25;26.88;;;15.73;;
28627;SDS011;15815;46.760;19.604;2023-12-28T08:30:51;37.55;;;20.08;;
28627;SDS011;15815;46.760;19.604;2023-12-28T08:33:16;31.45;;;17.33;;
28627;SDS011;15815;46.760;19.604;2023-12-28T08:35:42;28.50;;;15.90;;
28627;SDS011;15815;46.760;19.604;2023-12-28T08:40:38;29.48;;;17.15;;
28627;SDS011;15815;46.760;19.604;2023-12-28T08:43:05;27.23;;;15.40;;
28627;SDS011;15815;46.760;19.604;2023-12-28T08:45:31;26.75;;;15.27;;
28627;SDS011;15815;46.760;19.604;2023-12-28T08:48:00;27.17;;;15.48;;
28627;SDS011;15815;46.760;19.604;2023-12-28T08:50:25;22.10;;;14.32;;
28627;SDS011;15815;46.760;19.604;2023-12-28T08:52:51;26.38;;;14.00;;
28627;SDS011;15815;46.760;19.604;2023-12-28T08:55:19;24.85;;;14.00;;
28627;SDS011;15815;46.760;19.604;2023-12-28T08:57:49;20.52;;;13.43;;
28627;SDS011;15815;46.760;19.604;2023-12-28T09:00:14;21.48;;;12.85;;
28627;SDS011;15815;46.760;19.604;2023-12-28T09:02:40;23.42;;;14.13;;
28627;SDS011;15815;46.760;19.604;2023-12-28T09:05:06;22.27;;;12.32;;
28627;SDS011;15815;46.760;19.604;2023-12-28T09:07:36;20.67;;;12.40;;
28627;SDS011;15815;46.760;19.604;2023-12-28T09:10:05;24.08;;;12.38;;
28627;SDS011;15815;46.760;19.604;2023-12-28T09:12:36;18.10;;;11.90;;
28627;SDS011;15815;46.760;19.604;2023-12-28T09:15:03;20.67;;;12.63;;
28627;SDS011;15815;46.760;19.604;2023-12-28T09:17:32;22.30;;;12.30;;
28627;SDS011;15815;46.760;19.604;2023-12-28T09:19:57;22.50;;;13.40;;
28627;SDS011;15815;46.760;19.604;2023-12-28T09:22:23;21.95;;;12.80;;
28627;SDS011;15815;46.760;19.604;2023-12-28T09:24:49;20.90;;;12.38;;
28627;SDS011;15815;46.760;19.604;2023-12-28T09:27:15;35.70;;;16.80;;
28627;SDS011;15815;46.760;19.604;2023-12-28T09:29:43;36.30;;;19.05;;
28627;SDS011;15815;46.760;19.604;2023-12-28T09:32:08;21.35;;;10.88;;
28627;SDS011;15815;46.760;19.604;2023-12-28T09:34:34;18.98;;;12.18;;
28627;SDS011;15815;46.760;19.604;2023-12-28T09:36:59;18.00;;;11.65;;
28627;SDS011;15815;46.760;19.604;2023-12-28T09:39:26;19.70;;;10.70;;
28627;SDS011;15815;46.760;19.604;2023-12-28T09:42:00;14.80;;;9.63;;
28627;SDS011;15815;46.760;19.604;2023-12-28T09:44:36;15.77;;;9.38;;
28627;SDS011;15815;46.760;19.604;2023-12-28T09:47:06;14.45;;;8.63;;
28627;SDS011;15815;46.760;19.604;2023-12-28T09:49:31;16.27;;;8.93;;
28627;SDS011;15815;46.760;19.604;2023-12-28T09:51:57;16.75;;;9.80;;
28627;SDS011;15815;46.760;19.604;2023-12-28T09:54:22;16.77;;;10.23;;
28627;SDS011;15815;46.760;19.604;2023-12-28T09:56:48;13.27;;;8.10;;
28627;SDS011;15815;46.760;19.604;2023-12-28T09:59:20;13.60;;;7.72;;
28627;SDS011;15815;46.760;19.604;2023-12-28T10:05:40;14.10;;;9.60;;
28627;SDS011;15815;46.760;19.604;2023-12-28T10:25:32;11.50;;;7.53;;
28627;SDS011;15815;46.760;19.604;2023-12-28T10:28:04;14.43;;;7.65;;
28627;SDS011;15815;46.760;19.604;2023-12-28T10:30:54;14.82;;;7.97;;
28627;SDS011;15815;46.760;19.604;2023-12-28T10:33:34;11.25;;;6.95;;
28627;SDS011;15815;46.760;19.604;2023-12-28T10:36:00;9.23;;;6.75;;
28627;SDS011;15815;46.760;19.604;2023-12-28T10:38:36;8.40;;;5.97;;
28627;SDS011;15815;46.760;19.604;2023-12-28T10:41:05;8.77;;;6.28;;
28627;SDS011;15815;46.760;19.604;2023-12-28T10:43:32;11.88;;;5.93;;
28627;SDS011;15815;46.760;19.604;2023-12-28T10:46:06;9.90;;;5.93;;
28627;SDS011;15815;46.760;19.604;2023-12-28T10:48:34;13.60;;;8.05;;
28627;SDS011;15815;46.760;19.604;2023-12-28T10:59:58;8.55;;;5.65;;
28627;SDS011;15815;46.760;19.604;2023-12-28T11:02:37;8.02;;;4.97;;
28627;SDS011;15815;46.760;19.604;2023-12-28T11:05:04;7.93;;;5.13;;
28627;SDS011;15815;46.760;19.604;2023-12-28T11:07:31;9.07;;;5.50;;
28627;SDS011;15815;46.760;19.604;2023-12-28T11:09:59;8.75;;;4.70;;
28627;SDS011;15815;46.760;19.604;2023-12-28T11:12:28;7.10;;;4.35;;
28627;SDS011;15815;46.760;19.604;2023-12-28T11:14:53;4.53;;;2.75;;
28627;SDS011;15815;46.760;19.604;2023-12-28T11:17:23;4.82;;;2.25;;
28627;SDS011;15815;46.760;19.604;2023-12-28T11:19:50;4.65;;;2.65;;
28627;SDS011;15815;46.760;19.604;2023-12-28T11:22:22;5.43;;;2.50;;
28627;SDS011;15815;46.760;19.604;2023-12-28T11:24:51;2.47;;;1.90;;
28627;SDS011;15815;46.760;19.604;2023-12-28T11:27:17;3.95;;;2.13;;
28627;SDS011;15815;46.760;19.604;2023-12-28T11:29:47;3.90;;;1.80;;
28627;SDS011;15815;46.760;19.604;2023-12-28T11:32:13;4.72;;;2.00;;
28627;SDS011;15815;46.760;19.604;2023-12-28T11:34:40;4.10;;;1.77;;
28627;SDS011;15815;46.760;19.604;2023-12-28T11:37:12;3.00;;;1.75;;
28627;SDS011;15815;46.760;19.604;2023-12-28T11:39:41;4.38;;;1.75;;
28627;SDS011;15815;46.760;19.604;2023-12-28T11:42:07;4.78;;;2.08;;
28627;SDS011;15815;46.760;19.604;2023-12-28T11:44:42;2.55;;;1.60;;
28627;SDS011;15815;46.760;19.604;2023-12-28T11:47:22;3.35;;;2.00;;
28627;SDS011;15815;46.760;19.604;2023-12-28T11:49:50;5.05;;;1.83;;
28627;SDS011;15815;46.760;19.604;2023-12-28T11:52:22;3.58;;;1.40;;
28627;SDS011;15815;46.760;19.604;2023-12-28T11:54:54;3.40;;;1.33;;
28627;SDS011;15815;46.760;19.604;2023-12-28T11:57:19;2.78;;;1.23;;
28627;SDS011;15815;46.760;19.604;2023-12-28T11:59:46;1.83;;;1.15;;
28627;SDS011;15815;46.760;19.604;2023-12-28T12:02:13;1.67;;;1.25;;
28627;SDS011;15815;46.760;19.604;2023-12-28T12:04:39;3.35;;;2.25;;
28627;SDS011;15815;46.760;19.604;2023-12-28T12:07:05;2.70;;;1.70;;
28627;SDS011;15815;46.760;19.604;2023-12-28T12:09:31;2.03;;;1.65;;
28627;SDS011;15815;46.760;19.604;2023-12-28T12:11:58;4.30;;;1.63;;
28627;SDS011;15815;46.760;19.604;2023-12-28T12:14:24;2.28;;;1.45;;
28627;SDS011;15815;46.760;19.604;2023-12-28T12:16:49;1.08;;;0.98;;
28627;SDS011;15815;46.760;19.604;2023-12-28T12:19:19;1.75;;;1.20;;
28627;SDS011;15815;46.760;19.604;2023-12-28T12:21:45;4.68;;;1.30;;
28627;SDS011;15815;46.760;19.604;2023-12-28T12:24:19;4.00;;;1.80;;
28627;SDS011;15815;46.760;19.604;2023-12-28T12:26:46;16.38;;;4.75;;
28627;SDS011;15815;46.760;19.604;2023-12-28T12:29:12;3.20;;;1.73;;
28627;SDS011;15815;46.760;19.604;2023-12-28T12:31:39;2.17;;;1.40;;
28627;SDS011;15815;46.760;19.604;2023-12-28T12:34:04;4.20;;;2.05;;
28627;SDS011;15815;46.760;19.604;2023-12-28T12:36:30;2.40;;;1.40;;
28627;SDS011;15815;46.760;19.604;2023-12-28T12:39:05;2.22;;;1.30;;
28627;SDS011;15815;46.760;19.604;2023-12-28T12:41:33;3.15;;;1.85;;
28627;SDS011;15815;46.760;19.604;2023-12-28T12:43:59;3.35;;;1.65;;
28627;SDS011;15815;46.760;19.604;2023-12-28T12:46:25;2.55;;;1.60;;
28627;SDS011;15815;46.760;19.604;2023-12-28T12:48:55;6.30;;;1.73;;
28627;SDS011;15815;46.760;19.604;2023-12-28T12:51:25;3.85;;;1.35;;
28627;SDS011;15815;46.760;19.604;2023-12-28T12:54:00;7.03;;;2.20;;
28627;SDS011;15815;46.760;19.604;2023-12-28T12:56:32;3.22;;;1.55;;
28627;SDS011;15815;46.760;19.604;2023-12-28T12:58:57;2.45;;;1.40;;
28627;SDS011;15815;46.760;19.604;2023-12-28T13:01:25;4.47;;;1.52;;
28627;SDS011;15815;46.760;19.604;2023-12-28T13:03:51;3.53;;;1.60;;
28627;SDS011;15815;46.760;19.604;2023-12-28T13:06:18;2.90;;;1.70;;
28627;SDS011;15815;46.760;19.604;2023-12-28T13:08:47;3.75;;;1.80;;
28627;SDS011;15815;46.760;19.604;2023-12-28T13:11:12;5.22;;;2.10;;
28627;SDS011;15815;46.760;19.604;2023-12-28T13:13:39;3.58;;;1.88;;
28627;SDS011;15815;46.760;19.604;2023-12-28T13:16:04;4.75;;;2.35;;
28627;SDS011;15815;46.760;19.604;2023-12-28T13:18:31;2.70;;;1.67;;
28627;SDS011;15815;46.760;19.604;2023-12-28T13:20:56;7.80;;;3.67;;
28627;SDS011;15815;46.760;19.604;2023-12-28T13:23:22;11.38;;;3.78;;
28627;SDS011;15815;46.760;19.604;2023-12-28T13:25:48;5.00;;;2.20;;
28627;SDS011;15815;46.760;19.604;2023-12-28T13:28:14;6.80;;;2.75;;
28627;SDS011;15815;46.760;19.604;2023-12-28T13:30:40;4.82;;;2.00;;
28627;SDS011;15815;46.760;19.604;2023-12-28T13:33:07;7.43;;;2.33;;
28627;SDS011;15815;46.760;19.604;2023-12-28T13:35:33;4.85;;;2.17;;
28627;SDS011;15815;46.760;19.604;2023-12-28T13:37:59;6.72;;;3.25;;
28627;SDS011;15815;46.760;19.604;2023-12-28T13:40:24;12.00;;;3.78;;
28627;SDS011;15815;46.760;19.604;2023-12-28T13:42:51;4.95;;;2.47;;
28627;SDS011;15815;46.760;19.604;2023-12-28T13:45:17;5.05;;;2.72;;
28627;SDS011;15815;46.760;19.604;2023-12-28T13:47:42;4.28;;;2.55;;
28627;SDS011;15815;46.760;19.604;2023-12-28T13:50:08;13.43;;;4.50;;
28627;SDS011;15815;46.760;19.604;2023-12-28T13:52:38;7.50;;;3.85;;
28627;SDS011;15815;46.760;19.604;2023-12-28T13:55:03;5.65;;;3.47;;
28627;SDS011;15815;46.760;19.604;2023-12-28T13:57:31;6.82;;;3.00;;
28627;SDS011;15815;46.760;19.604;2023-12-28T13:59:56;6.25;;;2.92;;
28627;SDS011;15815;46.760;19.604;2023-12-28T14:02:22;6.35;;;2.83;;
28627;SDS011;15815;46.760;19.604;2023-12-28T14:04:47;8.32;;;3.05;;
28627;SDS011;15815;46.760;19.604;2023-12-28T14:07:16;4.28;;;2.65;;
28627;SDS011;15815;46.760;19.604;2023-12-28T14:09:41;7.15;;;2.90;;
28627;SDS011;15815;46.760;19.604;2023-12-28T14:12:07;8.13;;;3.28;;
28627;SDS011;15815;46.760;19.604;2023-12-28T14:14:33;3.83;;;2.55;;
28627;SDS011;15815;46.760;19.604;2023-12-28T14:17:02;8.95;;;3.88;;
28627;SDS011;15815;46.760;19.604;2023-12-28T14:19:28;19.50;;;7.47;;
28627;SDS011;15815;46.760;19.604;2023-12-28T14:21:53;21.52;;;8.82;;
28627;SDS011;15815;46.760;19.604;2023-12-28T14:24:25;10.55;;;5.03;;
28627;SDS011;15815;46.760;19.604;2023-12-28T14:26:53;9.60;;;4.75;;
28627;SDS011;15815;46.760;19.604;2023-12-28T14:29:20;11.60;;;5.88;;
28627;SDS011;15815;46.760;19.604;2023-12-28T14:31:52;20.33;;;10.77;;
28627;SDS011;15815;46.760;19.604;2023-12-28T14:34:18;31.90;;;15.63;;
28627;SDS011;15815;46.760;19.604;2023-12-28T14:36:44;22.38;;;10.57;;
28627;SDS011;15815;46.760;19.604;2023-12-28T14:39:13;17.20;;;8.95;;
28627;SDS011;15815;46.760;19.604;2023-12-28T14:41:38;9.73;;;5.03;;
28627;SDS011;15815;46.760;19.604;2023-12-28T14:44:04;10.25;;;5.32;;
28627;SDS011;15815;46.760;19.604;2023-12-28T14:46:30;10.63;;;5.57;;
28627;SDS011;15815;46.760;19.604;2023-12-28T14:48:56;11.63;;;4.75;;
28627;SDS011;15815;46.760;19.604;2023-12-28T14:51:22;9.45;;;4.45;;
28627;SDS011;15815;46.760;19.604;2023-12-28T14:53:49;20.17;;;6.20;;
28627;SDS011;15815;46.760;19.604;2023-12-28T14:56:14;18.20;;;7.47;;
28627;SDS011;15815;46.760;19.604;2023-12-28T14:58:40;14.20;;;6.88;;
28627;SDS011;15815;46.760;19.604;2023-12-28T15:01:06;16.27;;;7.00;;
28627;SDS011;15815;46.760;19.604;2023-12-28T15:03:32;12.93;;;7.40;;
28627;SDS011;15815;46.760;19.604;2023-12-28T15:05:57;12.85;;;6.60;;
28627;SDS011;15815;46.760;19.604;2023-12-28T15:08:31;14.32;;;7.00;;
28627;SDS011;15815;46.760;19.604;2023-12-28T15:10:57;14.15;;;6.80;;
28627;SDS011;15815;46.760;19.604;2023-12-28T15:13:22;15.88;;;7.38;;
28627;SDS011;15815;46.760;19.604;2023-12-28T15:15:49;21.23;;;9.27;;
28627;SDS011;15815;46.760;19.604;2023-12-28T15:18:17;18.20;;;8.93;;
28627;SDS011;15815;46.760;19.604;2023-12-28T15:20:46;17.35;;;7.75;;
28627;SDS011;15815;46.760;19.604;2023-12-28T15:25:41;22.50;;;8.23;;
28627;SDS011;15815;46.760;19.604;2023-12-28T15:28:07;25.63;;;12.45;;
28627;SDS011;15815;46.760;19.604;2023-12-28T15:30:35;24.77;;;11.18;;
28627;SDS011;15815;46.760;19.604;2023-12-28T15:33:01;24.55;;;10.93;;
28627;SDS011;15815;46.760;19.604;2023-12-28T15:35:27;23.67;;;10.75;;
28627;SDS011;15815;46.760;19.604;2023-12-28T15:37:53;21.55;;;9.32;;
28627;SDS011;15815;46.760;19.604;2023-12-28T15:40:19;24.40;;;10.73;;
28627;SDS011;15815;46.760;19.604;2023-12-28T15:42:51;24.15;;;9.60;;
28627;SDS011;15815;46.760;19.604;2023-12-28T15:45:18;23.02;;;10.93;;
28627;SDS011;15815;46.760;19.604;2023-12-28T15:47:43;27.83;;;13.90;;
28627;SDS011;15815;46.760;19.604;2023-12-28T15:50:09;27.80;;;12.52;;
28627;SDS011;15815;46.760;19.604;2023-12-28T15:52:34;18.98;;;10.20;;
28627;SDS011;15815;46.760;19.604;2023-12-28T15:55:01;25.38;;;10.70;;